createdAt,value
2023-04-25T00:01:15.161Z,71.37
2023-04-25T00:11:17.602Z,70.85
2023-04-25T00:21:21.109Z,70.65
2023-04-25T00:31:23.561Z,70.78
2023-04-25T00:41:27.976Z,70.89
2023-04-25T00:51:32.131Z,70.06
2023-04-25T01:01:34.718Z,69.40
2023-04-25T01:11:37.210Z,69.77
2023-04-25T01:21:40.059Z,69.74
2023-04-25T05:05:11.772Z,90.06
2023-04-25T05:15:14.965Z,85.28
2023-04-25T05:25:17.549Z,79.95
2023-04-25T05:35:20.016Z,77.58
2023-04-25T05:45:22.573Z,73.16
2023-04-25T05:55:25.036Z,67.61
2023-04-25T06:05:27.752Z,63.22
2023-04-25T06:15:30.149Z,58.81
2023-04-25T06:25:32.500Z,54.67
2023-04-25T06:35:34.981Z,49.00
2023-04-25T06:45:37.358Z,48.89
2023-04-25T06:55:39.808Z,44.48
2023-04-25T07:05:42.281Z,35.75
2023-04-25T07:15:45.168Z,34.96
2023-04-25T07:25:47.879Z,30.80
2023-04-25T07:35:50.266Z,35.70
2023-04-25T07:45:53.144Z,34.57
2023-04-25T07:55:55.602Z,28.54
2023-04-25T08:05:58.266Z,35.98
2023-04-25T08:16:00.712Z,31.50
2023-04-25T08:26:03.866Z,29.95
2023-04-25T08:36:06.947Z,34.10
2023-04-25T08:46:10.327Z,36.66
2023-04-25T08:56:14.468Z,39.96
2023-04-25T09:06:19.058Z,39.80
2023-04-25T09:16:23.431Z,40.91
2023-04-25T09:26:27.247Z,40.61
2023-04-25T09:36:31.773Z,38.44
2023-04-25T09:46:40.276Z,38.16
2023-04-25T09:56:43.280Z,39.58
2023-04-25T10:06:47.411Z,41.86
2023-04-25T10:16:50.628Z,38.83
2023-04-25T10:26:53.358Z,40.97
2023-04-25T10:36:55.847Z,41.04
2023-04-25T10:47:01.656Z,42.78
2023-04-25T10:57:04.318Z,39.03
2023-04-25T11:07:30.815Z,38.69
2023-04-25T11:17:34.494Z,41.29
2023-04-25T11:27:51.475Z,41.43
2023-04-25T11:37:53.982Z,39.89
2023-04-25T11:47:56.612Z,42.73
2023-04-25T11:58:01.573Z,39.51
2023-04-25T12:08:17.522Z,39.97
2023-04-25T12:18:25.242Z,40.54
2023-04-25T12:28:31.845Z,41.13
2023-04-25T12:38:38.028Z,41.19
2023-04-25T12:48:40.427Z,41.97
2023-04-25T12:58:44.946Z,41.50
2023-04-25T13:08:47.302Z,44.05
2023-04-25T13:18:49.975Z,42.73
2023-04-25T13:28:52.392Z,41.44
2023-04-25T13:38:54.735Z,41.99
2023-04-25T13:49:03.007Z,43.73
2023-04-25T13:59:12.774Z,43.60
2023-04-25T14:09:16.495Z,46.74
2023-04-25T14:19:22.020Z,47.36
2023-04-25T14:29:24.682Z,47.62
2023-04-25T14:39:27.145Z,50.06
2023-04-25T14:49:29.548Z,50.27
2023-04-25T14:59:32.141Z,50.94
2023-04-25T15:09:34.737Z,50.54
2023-04-25T15:19:37.927Z,56.86
2023-04-25T15:29:41.438Z,59.10
2023-04-25T15:39:45.193Z,60.39
2023-04-25T15:49:47.694Z,61.13
2023-04-25T15:59:50.789Z,59.97
2023-04-25T16:09:53.137Z,58.44
2023-04-25T16:19:59.538Z,57.33
2023-04-25T16:30:02.720Z,61.54
2023-04-25T16:40:09.189Z,62.24
2023-04-25T16:50:11.724Z,59.23
2023-04-25T17:00:14.874Z,58.21
2023-04-25T17:10:18.244Z,58.53
2023-04-25T17:20:20.769Z,58.46
2023-04-25T17:30:23.995Z,58.32
2023-04-25T17:40:27.080Z,59.12
2023-04-25T17:50:29.753Z,59.16
2023-04-25T18:00:32.807Z,58.14
2023-04-25T18:10:35.337Z,58.87
2023-04-25T18:20:38.185Z,58.32
2023-04-25T18:30:40.561Z,58.67
2023-04-25T18:40:54.208Z,59.29
2023-04-25T18:51:02.379Z,60.22
2023-04-25T19:01:05.140Z,61.27
2023-04-25T19:11:17.982Z,62.08
2023-04-25T19:21:23.626Z,60.38
2023-04-25T19:31:27.814Z,61.51
2023-04-25T19:41:32.231Z,60.64
2023-04-25T19:51:35.409Z,61.59
2023-04-25T20:01:37.827Z,60.74
2023-04-25T20:11:40.558Z,60.86
2023-04-25T20:21:43.077Z,64.66
2023-04-25T20:40:11.505Z,65.93
2023-04-25T20:50:13.858Z,68.52
2023-04-25T21:00:26.792Z,68.37
2023-04-25T21:10:29.215Z,68.99
2023-04-25T21:20:31.646Z,69.46
2023-04-25T21:30:34.015Z,66.05
2023-04-25T21:40:36.345Z,64.15
2023-04-25T21:50:38.827Z,63.57
2023-04-25T22:00:42.880Z,63.71
2023-04-25T22:10:45.316Z,62.93
2023-04-25T22:20:47.654Z,64.51
2023-04-25T22:30:50.677Z,66.14
2023-04-25T22:40:53.177Z,65.76
2023-04-25T22:51:03.126Z,65.65
2023-04-25T23:01:09.666Z,64.10
2023-04-25T23:11:12.080Z,62.56
2023-04-25T23:21:14.770Z,62.08
2023-04-25T23:31:17.430Z,61.40
2023-04-25T23:41:20.128Z,61.14
2023-04-25T23:51:22.630Z,61.31
